createdAt,value
2019-04-05T00:00:05.232Z,9.70
2019-04-05T00:01:05.309Z,9.60
2019-04-05T00:02:05.394Z,9.60
2019-04-05T00:03:05.544Z,9.70
2019-04-05T00:04:04.694Z,9.70
2019-04-05T00:05:04.831Z,9.60
2019-04-05T00:06:04.990Z,9.60
2019-04-05T00:07:05.079Z,9.60
2019-04-05T00:08:05.108Z,9.60
2019-04-05T00:09:05.198Z,9.50
2019-04-05T00:10:08.177Z,9.60
2019-04-05T00:11:08.202Z,9.60
2019-04-05T00:12:08.174Z,9.60
2019-04-05T00:13:05.197Z,9.60
2019-04-05T00:14:08.184Z,9.60
2019-04-05T00:15:14.900Z,9.60
2019-04-05T00:16:08.187Z,9.60
2019-04-05T00:17:08.179Z,9.60
2019-04-05T00:18:05.132Z,9.60
2019-04-05T00:19:05.138Z,9.60
2019-04-05T00:20:10.282Z,9.60
2019-04-05T00:21:05.219Z,9.60
2019-04-05T00:22:08.186Z,9.60
2019-04-05T00:23:05.197Z,9.60
2019-04-05T00:24:05.343Z,9.60
2019-04-05T00:25:08.194Z,9.60
2019-04-05T00:26:05.213Z,9.60
2019-04-05T00:27:05.419Z,9.60
2019-04-05T00:28:05.484Z,9.60
2019-04-05T00:29:05.579Z,9.60
2019-04-05T00:30:08.203Z,9.60
2019-04-05T00:31:08.193Z,9.60
2019-04-05T00:32:05.137Z,9.60
2019-04-05T00:33:08.199Z,9.60
2019-04-05T00:34:05.180Z,9.60
2019-04-05T00:35:12.973Z,9.60
2019-04-05T00:36:08.211Z,9.60
2019-04-05T00:37:05.079Z,9.60
2019-04-05T00:38:05.276Z,9.60
2019-04-05T00:39:05.321Z,9.60
2019-04-05T00:40:05.327Z,9.60
2019-04-05T00:41:05.403Z,9.60
2019-04-05T00:42:05.526Z,9.60
2019-04-05T00:43:05.597Z,9.60
2019-04-05T00:44:04.934Z,9.60
2019-04-05T00:45:04.954Z,9.50
2019-04-05T00:46:05.109Z,9.50
2019-04-05T00:47:08.256Z,9.50
2019-04-05T00:48:08.247Z,9.50
2019-04-05T00:49:05.244Z,9.50
2019-04-05T00:50:10.477Z,9.50
2019-04-05T00:51:08.224Z,9.50
2019-04-05T00:52:05.237Z,9.50
2019-04-05T00:53:05.493Z,9.50
2019-04-05T00:54:05.544Z,9.50
2019-04-05T00:55:05.656Z,9.50
2019-04-05T00:56:04.706Z,9.50
2019-04-05T00:57:04.722Z,9.50
2019-04-05T00:58:04.790Z,9.50
2019-04-05T00:59:04.875Z,9.50
2019-04-05T01:00:08.242Z,9.50
2019-04-05T01:01:10.380Z,9.50
2019-04-05T01:02:08.233Z,9.40
2019-04-05T01:03:05.217Z,9.50
2019-04-05T01:04:08.243Z,9.40
2019-04-05T01:05:05.210Z,9.40
2019-04-05T01:06:08.225Z,9.40
2019-04-05T01:07:05.175Z,9.40
2019-04-05T01:08:05.376Z,9.40
2019-04-05T01:09:05.448Z,9.40
2019-04-05T01:10:10.606Z,9.40
2019-04-05T01:11:08.238Z,9.40
2019-04-05T01:12:08.230Z,9.40
2019-04-05T01:13:08.243Z,9.40
2019-04-05T01:14:05.177Z,9.40
2019-04-05T01:15:05.374Z,9.30
2019-04-05T01:16:05.506Z,9.30
2019-04-05T01:17:08.240Z,9.30
2019-04-05T01:18:08.229Z,9.30
2019-04-05T01:19:08.278Z,9.30
2019-04-05T01:20:05.222Z,9.20
2019-04-05T01:21:05.250Z,9.30
2019-04-05T01:22:05.244Z,9.20
2019-04-05T01:23:05.407Z,9.20
2019-04-05T01:24:08.242Z,9.20
2019-04-05T01:25:05.277Z,9.20
2019-04-05T01:26:05.470Z,9.20
2019-04-05T01:27:08.269Z,9.20
2019-04-05T01:28:05.285Z,9.20
2019-04-05T01:29:08.242Z,9.20
2019-04-05T01:30:05.297Z,9.20
2019-04-05T01:31:08.259Z,9.20
2019-04-05T01:32:08.290Z,9.20
2019-04-05T01:33:05.234Z,9.20
2019-04-05T01:34:05.615Z,9.20
2019-04-05T01:35:04.871Z,9.20
2019-04-05T01:36:08.272Z,9.20
2019-04-05T01:37:05.248Z,9.20
2019-04-05T01:38:10.369Z,9.20
2019-04-05T01:39:08.250Z,9.20
2019-04-05T01:40:08.256Z,9.20
2019-04-05T01:41:05.153Z,9.20
2019-04-05T01:42:08.291Z,9.20
2019-04-05T01:43:05.281Z,9.20
2019-04-05T01:44:10.705Z,9.20
2019-04-05T01:45:04.565Z,9.20
2019-04-05T01:46:04.600Z,9.20
2019-04-05T01:47:04.619Z,9.20
2019-04-05T01:48:04.691Z,9.20
2019-04-05T01:49:04.672Z,9.20
2019-04-05T01:50:08.278Z,9.20
2019-04-05T01:51:08.288Z,9.20
2019-04-05T01:52:05.223Z,9.20
2019-04-05T01:53:05.280Z,9.20
2019-04-05T01:54:05.285Z,9.20
2019-04-05T01:55:08.278Z,9.10
2019-04-05T01:56:05.132Z,9.10
2019-04-05T01:57:08.275Z,9.20
2019-04-05T01:58:10.274Z,9.20
2019-04-05T01:59:10.399Z,9.10
2019-04-05T02:00:08.278Z,9.10
2019-04-05T02:01:05.381Z,9.10
2019-04-05T02:02:05.542Z,9.10
2019-04-05T02:03:04.603Z,9.10
2019-04-05T02:04:08.291Z,9.10
2019-04-05T02:05:08.280Z,9.10
2019-04-05T02:06:05.194Z,9.10
2019-04-05T02:07:05.275Z,9.10
2019-04-05T02:08:05.315Z,9.10
2019-04-05T02:09:08.291Z,9.10
2019-04-05T02:10:05.200Z,9.00
2019-04-05T02:11:05.279Z,9.00
2019-04-05T02:12:05.486Z,9.00
2019-04-05T02:13:08.299Z,9.00
2019-04-05T02:14:05.255Z,9.00
2019-04-05T02:15:05.274Z,9.00
2019-04-05T02:16:06.392Z,9.00
2019-04-05T02:17:08.319Z,9.00
2019-04-05T02:18:05.324Z,9.00
2019-04-05T02:19:05.385Z,9.00
2019-04-05T02:20:08.286Z,9.00
2019-04-05T02:21:05.345Z,9.00
2019-04-05T02:22:05.510Z,9.00
2019-04-05T02:23:04.780Z,9.00
2019-04-05T02:24:04.790Z,9.00
2019-04-05T02:25:04.922Z,8.90
2019-04-05T02:26:08.336Z,8.90
2019-04-05T02:27:08.322Z,8.90
2019-04-05T02:28:05.238Z,8.90
2019-04-05T02:29:05.368Z,8.90
2019-04-05T02:30:05.453Z,8.90
2019-04-05T02:31:05.512Z,8.90
2019-04-05T02:32:05.582Z,8.90
2019-04-05T02:33:05.588Z,8.90
2019-04-05T02:34:08.332Z,8.90
2019-04-05T02:35:05.342Z,8.90
2019-04-05T02:36:08.342Z,8.80
2019-04-05T02:37:05.280Z,8.90
2019-04-05T02:38:08.345Z,8.90
2019-04-05T02:39:05.232Z,8.90
2019-04-05T02:40:05.439Z,8.90
2019-04-05T02:41:08.340Z,8.90
2019-04-05T02:42:08.320Z,8.80
2019-04-05T02:43:05.270Z,8.80
2019-04-05T02:44:08.374Z,8.90
2019-04-05T02:45:05.351Z,8.80
2019-04-05T02:46:22.513Z,8.90
2019-04-05T02:47:05.137Z,8.90
2019-04-05T02:48:05.390Z,8.80
2019-04-05T02:49:05.525Z,8.90
2019-04-05T02:50:08.333Z,8.80
2019-04-05T02:51:08.360Z,8.80
2019-04-05T02:52:05.334Z,8.80
2019-04-05T02:53:08.331Z,8.80
2019-04-05T02:54:05.276Z,8.80
2019-04-05T02:55:08.332Z,8.80
2019-04-05T02:56:05.292Z,8.80
2019-04-05T02:57:05.325Z,8.80
2019-04-05T02:58:08.344Z,8.80
2019-04-05T02:59:05.281Z,8.80
2019-04-05T03:00:05.267Z,8.80
2019-04-05T03:01:08.442Z,8.80
2019-04-05T03:02:05.347Z,8.80
2019-04-05T03:03:05.481Z,8.80
2019-04-05T03:04:05.631Z,8.70
2019-04-05T03:05:04.722Z,8.70
2019-04-05T03:06:04.884Z,8.80
2019-04-05T03:07:10.146Z,8.80
2019-04-05T03:08:05.068Z,8.80
2019-04-05T03:09:05.170Z,8.80
2019-04-05T03:10:05.238Z,8.80
2019-04-05T03:11:05.326Z,8.80
2019-04-05T03:12:05.380Z,8.80
2019-04-05T03:13:05.466Z,8.80
2019-04-05T03:14:05.566Z,8.80
2019-04-05T03:15:08.356Z,8.80
2019-04-05T03:16:05.251Z,8.80
2019-04-05T03:17:05.342Z,8.80
2019-04-05T03:18:08.352Z,8.80
2019-04-05T03:19:05.371Z,8.80
2019-04-05T03:20:08.343Z,8.80
2019-04-05T03:21:05.361Z,8.80
2019-04-05T03:22:05.580Z,8.80
2019-04-05T03:23:04.582Z,8.80
2019-04-05T03:24:08.377Z,8.90
2019-04-05T03:25:05.364Z,8.80
2019-04-05T03:26:05.487Z,8.80
2019-04-05T03:27:05.604Z,8.90
2019-04-05T03:28:04.704Z,8.80
2019-04-05T03:29:04.792Z,8.90
2019-04-05T03:30:08.373Z,8.80
2019-04-05T03:31:08.360Z,8.90
2019-04-05T03:32:10.395Z,8.80
2019-04-05T03:33:08.388Z,8.80
2019-04-05T03:34:05.368Z,8.90
2019-04-05T03:35:05.414Z,8.90
2019-04-05T03:36:08.366Z,8.90
2019-04-05T03:37:10.378Z,8.80
2019-04-05T03:38:08.367Z,8.80
2019-04-05T03:39:05.358Z,8.90
2019-04-05T03:40:05.565Z,8.90
2019-04-05T03:41:04.589Z,8.90
2019-04-05T03:42:08.424Z,8.90
2019-04-05T03:43:05.454Z,8.90
2019-04-05T03:44:04.610Z,8.90
2019-04-05T03:45:04.679Z,8.90
2019-04-05T03:46:04.698Z,8.90
2019-04-05T03:47:04.832Z,8.90
2019-04-05T03:48:04.930Z,8.90
2019-04-05T03:49:05.014Z,8.90
2019-04-05T03:50:05.194Z,8.90
2019-04-05T03:51:08.387Z,8.90
2019-04-05T03:52:05.416Z,8.80
2019-04-05T03:53:05.488Z,8.90
2019-04-05T03:54:05.468Z,8.90
2019-04-05T03:55:05.535Z,8.80
2019-04-05T03:56:05.612Z,8.90
2019-04-05T03:57:04.645Z,8.90
2019-04-05T03:58:04.799Z,8.90
2019-04-05T03:59:04.850Z,8.80
2019-04-05T04:00:05.020Z,8.80
2019-04-05T04:01:05.126Z,8.80
2019-04-05T04:02:05.209Z,8.80
2019-04-05T04:03:05.409Z,8.80
2019-04-05T04:04:04.679Z,8.80
2019-04-05T04:05:08.443Z,8.70
2019-04-05T04:06:08.394Z,8.70
2019-04-05T04:07:05.307Z,8.70
2019-04-05T04:08:05.364Z,8.70
2019-04-05T04:09:08.410Z,8.70
2019-04-05T04:10:05.350Z,8.70
2019-04-05T04:11:05.497Z,8.70
2019-04-05T04:12:05.558Z,8.70
2019-04-05T04:13:04.641Z,8.70
2019-04-05T04:14:04.666Z,8.70
2019-04-05T04:15:04.791Z,8.70
2019-04-05T04:16:04.836Z,8.70
2019-04-05T04:17:11.795Z,8.70
2019-04-05T04:18:05.267Z,8.70
2019-04-05T04:19:05.391Z,8.70
2019-04-05T04:20:08.408Z,8.70
2019-04-05T04:21:08.413Z,8.70
2019-04-05T04:22:05.298Z,8.70
2019-04-05T04:23:08.398Z,8.70
2019-04-05T04:24:05.275Z,8.70
2019-04-05T04:25:08.425Z,8.70
2019-04-05T04:26:08.453Z,8.60
2019-04-05T04:27:05.337Z,8.70
2019-04-05T04:28:05.314Z,8.70
2019-04-05T04:29:05.434Z,8.70
2019-04-05T04:30:05.495Z,8.70
2019-04-05T04:31:05.545Z,8.60
2019-04-05T04:32:04.799Z,8.70
2019-04-05T04:33:04.897Z,8.60
2019-04-05T04:34:10.190Z,8.60
2019-04-05T04:35:08.472Z,8.60
2019-04-05T04:36:05.505Z,8.60
2019-04-05T04:37:08.417Z,8.60
2019-04-05T04:38:05.413Z,8.60
2019-04-05T04:39:05.524Z,8.60
2019-04-05T04:40:08.422Z,8.60
2019-04-05T04:41:05.331Z,8.60
2019-04-05T04:42:05.361Z,8.60
2019-04-05T04:43:08.424Z,8.60
2019-04-05T04:44:04.755Z,8.60
2019-04-05T04:45:11.662Z,8.60
2019-04-05T04:46:04.900Z,8.60
2019-04-05T04:47:08.422Z,8.60
2019-04-05T04:48:08.431Z,8.60
2019-04-05T04:49:08.432Z,8.60
2019-04-05T04:50:05.416Z,8.60
2019-04-05T04:51:05.461Z,8.60
2019-04-05T04:52:08.453Z,8.60
2019-04-05T04:53:08.450Z,8.60
2019-04-05T04:54:08.443Z,8.60
2019-04-05T04:55:08.417Z,8.60
2019-04-05T04:56:05.494Z,8.60
2019-04-05T04:57:05.635Z,8.60
2019-04-05T04:58:04.742Z,8.60
2019-04-05T04:59:08.482Z,8.50
2019-04-05T05:00:05.352Z,8.60
2019-04-05T05:01:05.463Z,8.60
2019-04-05T05:02:05.637Z,8.50
2019-04-05T05:03:04.694Z,8.60
2019-04-05T05:04:04.669Z,8.50
2019-04-05T05:05:04.928Z,8.50
2019-04-05T05:06:08.450Z,8.60
2019-04-05T05:07:08.491Z,8.50
2019-04-05T05:08:08.456Z,8.50
2019-04-05T05:09:05.500Z,8.50
2019-04-05T05:10:05.526Z,8.50
2019-04-05T05:11:14.215Z,8.50
2019-04-05T05:12:04.975Z,8.50
2019-04-05T05:13:05.077Z,8.50
2019-04-05T05:14:05.169Z,8.50
2019-04-05T05:15:08.489Z,8.60
2019-04-05T05:16:05.363Z,8.50
2019-04-05T05:17:05.462Z,8.60
2019-04-05T05:18:05.490Z,8.50
2019-04-05T05:19:05.559Z,8.50
2019-04-05T05:20:08.474Z,8.60
2019-04-05T05:21:05.518Z,8.50
2019-04-05T05:22:04.611Z,8.50
2019-04-05T05:23:04.633Z,8.60
2019-04-05T05:24:04.643Z,8.60
2019-04-05T05:25:08.451Z,8.50
2019-04-05T05:26:08.478Z,8.60
2019-04-05T05:27:05.368Z,8.60
2019-04-05T05:28:08.546Z,8.60
2019-04-05T05:29:08.493Z,8.60
2019-04-05T05:30:10.473Z,8.60
2019-04-05T05:31:05.339Z,8.60
2019-04-05T05:32:05.330Z,8.60
2019-04-05T05:33:05.352Z,8.60
2019-04-05T05:34:05.473Z,8.60
2019-04-05T05:35:05.537Z,8.60
2019-04-05T05:36:05.553Z,8.70
2019-04-05T05:37:09.767Z,8.70
2019-04-05T05:38:08.503Z,8.70
2019-04-05T05:39:08.479Z,8.70
2019-04-05T05:40:08.484Z,8.70
2019-04-05T05:41:05.397Z,8.70
2019-04-05T05:42:08.482Z,8.70
2019-04-05T05:43:05.347Z,8.70
2019-04-05T05:44:10.430Z,8.60
2019-04-05T05:45:05.262Z,8.70
2019-04-05T05:46:04.795Z,8.70
2019-04-05T05:47:09.911Z,8.70
2019-04-05T05:48:04.893Z,8.70
2019-04-05T05:49:04.950Z,8.70
2019-04-05T05:50:04.978Z,8.70
2019-04-05T05:51:05.041Z,8.70
2019-04-05T05:52:05.200Z,8.70
2019-04-05T05:53:08.515Z,8.70
2019-04-05T05:54:05.389Z,8.70
2019-04-05T05:55:05.583Z,8.70
2019-04-05T05:56:08.524Z,8.70
2019-04-05T05:57:05.493Z,8.70
2019-04-05T05:58:05.619Z,8.70
2019-04-05T05:59:04.690Z,8.70
2019-04-05T06:00:09.742Z,8.70
2019-04-05T06:01:08.511Z,8.70
2019-04-05T06:02:07.205Z,8.70
2019-04-05T06:03:06.315Z,8.70
2019-04-05T06:04:08.515Z,8.70
2019-04-05T06:05:08.517Z,8.70
2019-04-05T06:06:08.515Z,8.70
2019-04-05T06:07:05.421Z,8.70
2019-04-05T06:08:05.591Z,8.70
2019-04-05T06:09:04.719Z,8.70
2019-04-05T06:10:08.528Z,8.70
2019-04-05T06:11:08.513Z,8.70
2019-04-05T06:12:08.494Z,8.70
2019-04-05T06:14:12.714Z,8.70
2019-04-05T06:15:05.739Z,8.70
2019-04-05T06:16:05.185Z,8.70
2019-04-05T06:17:05.219Z,8.70
2019-04-05T06:18:05.418Z,8.70
2019-04-05T06:19:08.508Z,8.70
2019-04-05T06:20:05.511Z,8.70
2019-04-05T06:21:04.614Z,8.70
2019-04-05T06:22:08.516Z,8.70
2019-04-05T06:23:05.395Z,8.70
2019-04-05T06:24:05.556Z,8.70
2019-04-05T06:25:08.528Z,8.70
2019-04-05T06:26:08.532Z,8.70
2019-04-05T06:27:05.512Z,8.70
2019-04-05T06:28:08.498Z,8.70
2019-04-05T06:29:05.377Z,8.60
2019-04-05T06:30:08.542Z,8.60
2019-04-05T06:31:05.535Z,8.60
2019-04-05T06:32:04.629Z,8.60
2019-04-05T06:33:04.630Z,8.70
2019-04-05T06:34:04.594Z,8.70
2019-04-05T06:35:04.613Z,8.70
2019-04-05T06:35:39.457Z,8.70
2019-04-05T06:36:04.792Z,8.70
2019-04-05T06:37:08.541Z,8.70
2019-04-05T06:38:08.534Z,8.60
2019-04-05T06:39:05.505Z,8.70
2019-04-05T06:40:05.697Z,8.70
2019-04-05T06:41:04.740Z,8.60
2019-04-05T06:42:04.768Z,8.60
2019-04-05T06:43:06.619Z,8.60
2019-04-05T06:44:05.308Z,8.60
2019-04-05T06:45:05.352Z,8.60
2019-04-05T06:46:05.563Z,8.60
2019-04-05T06:47:04.617Z,8.60
2019-04-05T06:48:17.952Z,8.60
2019-04-05T06:49:05.488Z,8.60
2019-04-05T06:50:05.543Z,8.60
2019-04-05T06:51:04.621Z,8.60
2019-04-05T06:52:04.624Z,8.60
2019-04-05T06:53:04.664Z,8.60
2019-04-05T06:54:04.991Z,8.60
2019-04-05T06:55:05.035Z,8.60
2019-04-05T06:56:08.558Z,8.60
2019-04-05T06:57:08.560Z,8.60
2019-04-05T06:58:05.421Z,8.60
2019-04-05T06:59:05.535Z,8.60
2019-04-05T07:00:04.914Z,8.60
2019-04-05T07:01:05.075Z,8.60
2019-04-05T07:02:05.093Z,8.60
2019-04-05T07:03:04.781Z,8.60
2019-04-05T07:04:04.811Z,8.60
2019-04-05T07:05:04.958Z,8.60
2019-04-05T07:06:08.560Z,8.60
2019-04-05T07:07:05.499Z,8.60
2019-04-05T07:08:05.467Z,8.60
2019-04-05T07:09:05.487Z,8.60
2019-04-05T07:10:08.616Z,8.60
2019-04-05T07:11:08.569Z,8.60
2019-04-05T07:12:08.548Z,8.70
2019-04-05T07:13:05.563Z,8.70
2019-04-05T07:14:04.738Z,8.70
2019-04-05T07:15:04.783Z,8.70
2019-04-05T07:16:04.889Z,8.70
2019-04-05T07:17:05.144Z,8.70
2019-04-05T07:18:05.197Z,8.70
2019-04-05T07:19:05.231Z,8.70
2019-04-05T07:20:05.304Z,8.70
2019-04-05T07:21:05.310Z,8.70
2019-04-05T07:22:08.576Z,8.70
2019-04-05T07:23:05.513Z,8.70
2019-04-05T07:24:05.518Z,8.70
2019-04-05T07:25:05.538Z,8.70
2019-04-05T07:26:08.585Z,8.70
2019-04-05T07:27:05.509Z,8.70
2019-04-05T07:28:08.559Z,8.70
2019-04-05T07:29:05.491Z,8.70
2019-04-05T07:30:05.541Z,8.70
2019-04-05T07:31:08.595Z,8.70
2019-04-05T07:32:08.589Z,8.70
2019-04-05T07:33:08.597Z,8.70
2019-04-05T07:34:05.528Z,8.70
2019-04-05T07:35:08.608Z,8.70
2019-04-05T07:36:08.569Z,8.70
2019-04-05T07:37:10.686Z,8.70
2019-04-05T07:38:05.586Z,8.70
2019-04-05T07:39:05.627Z,8.70
2019-04-05T07:40:04.679Z,8.70
2019-04-05T07:41:04.761Z,8.70
2019-04-05T07:42:08.606Z,8.70
2019-04-05T07:43:05.510Z,8.70
2019-04-05T07:44:05.072Z,8.70
2019-04-05T07:45:05.216Z,8.70
2019-04-05T07:46:05.277Z,8.70
2019-04-05T07:47:05.251Z,8.70
2019-04-05T07:48:05.376Z,8.70
2019-04-05T07:49:08.609Z,8.70
2019-04-05T07:50:08.589Z,8.70
2019-04-05T07:51:05.633Z,8.70
2019-04-05T07:52:05.032Z,8.70
2019-04-05T07:53:05.090Z,8.70
2019-04-05T07:54:05.139Z,8.70
2019-04-05T07:55:08.631Z,8.70
2019-04-05T07:56:05.617Z,8.70
2019-04-05T07:57:08.697Z,8.70
2019-04-05T07:58:05.580Z,8.60
2019-04-05T07:59:04.623Z,8.70
2019-04-05T08:00:04.669Z,8.70
2019-04-05T08:01:08.610Z,8.70
2019-04-05T08:02:10.612Z,8.70
2019-04-05T08:03:05.484Z,8.70
2019-04-05T08:04:08.605Z,8.70
2019-04-05T08:05:06.388Z,8.60
2019-04-05T08:06:05.148Z,8.70
2019-04-05T08:07:05.328Z,8.70
2019-04-05T08:08:05.366Z,8.70
2019-04-05T08:09:08.628Z,8.70
2019-04-05T08:10:08.618Z,8.70
2019-04-05T08:11:05.513Z,8.70
2019-04-05T08:12:05.541Z,8.70
2019-04-05T08:13:05.511Z,8.70
2019-04-05T08:14:05.633Z,8.70
2019-04-05T08:15:04.863Z,8.70
2019-04-05T08:16:05.082Z,8.70
2019-04-05T08:17:08.639Z,8.70
2019-04-05T08:18:05.576Z,8.80
2019-04-05T08:19:04.588Z,8.70
2019-04-05T08:20:08.616Z,8.70
2019-04-05T08:21:05.503Z,8.80
2019-04-05T08:22:10.707Z,8.70
2019-04-05T08:23:08.654Z,8.70
2019-04-05T08:24:05.564Z,8.30
2019-04-05T08:25:05.560Z,8.80
2019-04-05T08:26:05.544Z,8.80
2019-04-05T08:27:04.629Z,8.80
2019-04-05T08:28:06.726Z,8.80
2019-04-05T08:29:05.435Z,8.80
2019-04-05T08:30:08.640Z,8.80
2019-04-05T08:31:10.615Z,8.80
2019-04-05T08:32:14.187Z,8.80
2019-04-05T08:33:05.007Z,8.80
2019-04-05T08:34:08.630Z,8.80
2019-04-05T08:35:05.685Z,8.80
2019-04-05T08:36:04.918Z,8.80
2019-04-05T08:37:04.982Z,8.80
2019-04-05T08:38:05.066Z,8.80
2019-04-05T08:39:08.645Z,8.80
2019-04-05T08:40:05.545Z,8.80
2019-04-05T08:41:08.653Z,8.80
2019-04-05T08:42:05.702Z,8.80
2019-04-05T08:43:08.689Z,8.80
2019-04-05T08:44:08.641Z,8.80
2019-04-05T08:45:05.671Z,8.80
2019-04-05T08:46:04.796Z,8.80
2019-04-05T08:47:08.659Z,8.90
2019-04-05T08:48:10.615Z,8.80
2019-04-05T08:49:10.786Z,8.80
2019-04-05T08:50:04.670Z,8.80
2019-04-05T08:51:04.857Z,8.00
2019-04-05T08:52:04.942Z,8.90
2019-04-05T08:53:08.669Z,8.80
2019-04-05T08:54:05.684Z,8.90
2019-04-05T08:55:04.773Z,8.90
2019-04-05T08:56:04.837Z,8.90
2019-04-05T08:57:05.007Z,8.90
2019-04-05T08:58:05.115Z,8.90
2019-04-05T08:59:08.660Z,8.90
2019-04-05T09:00:08.669Z,8.90
2019-04-05T09:01:05.543Z,8.90
2019-04-05T09:02:04.686Z,8.90
2019-04-05T09:03:04.632Z,8.90
2019-04-05T09:04:04.891Z,8.90
2019-04-05T09:05:05.011Z,8.90
2019-04-05T09:06:05.068Z,8.90
2019-04-05T09:07:05.155Z,8.90
2019-04-05T09:08:10.390Z,8.90
2019-04-05T09:09:08.669Z,9.00
2019-04-05T09:10:08.661Z,9.00
2019-04-05T09:11:04.667Z,9.00
2019-04-05T09:12:04.730Z,9.00
2019-04-05T09:13:08.710Z,9.00
2019-04-05T09:14:04.849Z,9.00
2019-04-05T09:15:04.951Z,9.00
2019-04-05T09:16:11.556Z,9.00
2019-04-05T09:17:04.777Z,9.00
2019-04-05T09:18:08.701Z,9.00
2019-04-05T09:19:04.626Z,9.00
2019-04-05T09:20:05.557Z,9.00
2019-04-05T09:21:04.826Z,9.00
2019-04-05T09:22:08.711Z,9.00
2019-04-05T09:23:04.630Z,9.10
2019-04-05T09:24:04.639Z,9.10
2019-04-05T09:25:08.673Z,9.10
2019-04-05T09:26:05.568Z,9.10
2019-04-05T09:27:08.686Z,9.20
2019-04-05T09:28:04.623Z,9.10
2019-04-05T09:29:09.839Z,9.20
2019-04-05T09:30:05.007Z,9.20
2019-04-05T09:31:05.182Z,9.20
2019-04-05T09:32:05.236Z,9.20
2019-04-05T09:33:05.373Z,9.20
2019-04-05T09:34:05.463Z,9.20
2019-04-05T09:35:08.745Z,9.20
2019-04-05T09:36:04.608Z,9.20
2019-04-05T09:37:04.723Z,9.20
2019-04-05T09:38:04.778Z,9.20
2019-04-05T09:39:04.846Z,9.20
2019-04-05T09:40:08.695Z,9.20
2019-04-05T09:41:05.636Z,9.20
2019-04-05T09:42:08.698Z,9.20
2019-04-05T09:43:05.585Z,9.20
2019-04-05T09:44:05.084Z,9.20
2019-04-05T09:45:08.750Z,9.20
2019-04-05T09:46:08.726Z,9.20
2019-04-05T09:47:04.633Z,9.20
2019-04-05T09:48:08.694Z,9.20
2019-04-05T09:49:08.701Z,9.20
2019-04-05T09:50:04.763Z,9.20
2019-04-05T09:51:07.079Z,9.20
2019-04-05T09:52:05.433Z,9.20
2019-04-05T09:53:05.473Z,9.20
2019-04-05T09:54:08.731Z,9.20
2019-04-05T09:55:08.712Z,9.20
2019-04-05T09:56:04.811Z,9.20
2019-04-05T09:57:10.091Z,9.20
2019-04-05T09:58:05.099Z,9.20
2019-04-05T09:59:08.695Z,9.20
2019-04-05T10:00:04.674Z,9.20
2019-04-05T10:01:08.701Z,9.10
2019-04-05T10:02:04.745Z,9.10
2019-04-05T10:03:04.889Z,9.20
2019-04-05T10:04:08.716Z,9.20
2019-04-05T10:05:04.612Z,9.10
2019-04-05T10:06:08.567Z,9.20
2019-04-05T10:07:05.472Z,9.10
2019-04-05T10:08:05.510Z,9.20
2019-04-05T10:09:10.655Z,9.20
2019-04-05T10:10:08.734Z,9.20
2019-04-05T10:11:04.683Z,9.20
2019-04-05T10:12:04.739Z,9.20
2019-04-05T10:13:04.890Z,9.20
2019-04-05T10:14:05.136Z,9.20
2019-04-05T10:15:08.740Z,9.20
2019-04-05T10:16:04.804Z,9.20
2019-04-05T10:17:04.961Z,9.20
2019-04-05T10:18:05.043Z,9.20
2019-04-05T10:19:08.741Z,9.20
2019-04-05T10:20:04.849Z,9.30
2019-04-05T10:21:05.043Z,9.30
2019-04-05T10:22:05.224Z,9.20
2019-04-05T10:23:05.226Z,9.20
2019-04-05T10:24:08.773Z,9.30
2019-04-05T10:25:08.599Z,9.30
2019-04-05T10:26:05.611Z,9.30
2019-04-05T10:27:04.783Z,9.30
2019-04-05T10:28:04.888Z,9.30
2019-04-05T10:29:04.986Z,9.30
2019-04-05T10:30:05.048Z,9.30
2019-04-05T10:31:08.755Z,9.30
2019-04-05T10:32:04.684Z,9.30
2019-04-05T10:33:04.680Z,9.30
2019-04-05T10:34:08.726Z,9.30
2019-04-05T10:35:04.752Z,9.30
2019-04-05T10:36:04.831Z,9.30
2019-04-05T10:37:08.774Z,9.30
2019-04-05T10:38:04.730Z,9.30
2019-04-05T10:39:04.747Z,9.30
2019-04-05T10:40:08.738Z,9.30
2019-04-05T10:41:12.465Z,9.30
2019-04-05T10:42:05.409Z,9.30
2019-04-05T10:43:10.567Z,9.30
2019-04-05T10:44:08.606Z,9.30
2019-04-05T10:45:05.520Z,9.30
2019-04-05T10:46:08.779Z,9.30
2019-04-05T10:47:04.723Z,9.30
2019-04-05T10:48:04.913Z,9.40
2019-04-05T10:49:08.766Z,9.40
2019-04-05T10:50:04.643Z,9.40
2019-04-05T10:51:04.692Z,9.40
2019-04-05T10:52:04.787Z,9.30
2019-04-05T10:53:04.904Z,9.40
2019-04-05T10:54:05.031Z,9.40
2019-04-05T10:55:05.153Z,9.40
2019-04-05T10:56:05.162Z,9.40
2019-04-05T10:57:08.757Z,9.40
2019-04-05T10:58:04.812Z,9.40
2019-04-05T10:59:08.757Z,9.40
2019-04-05T11:00:08.630Z,9.40
2019-04-05T11:01:05.592Z,9.40
2019-04-05T11:02:08.634Z,9.40
2019-04-05T11:03:08.787Z,9.40
2019-04-05T11:04:08.782Z,9.40
2019-04-05T11:05:04.776Z,9.40
2019-04-05T11:06:08.800Z,9.40
2019-04-05T11:07:08.790Z,9.40
2019-04-05T11:08:04.751Z,9.40
2019-04-05T11:09:04.809Z,9.40
2019-04-05T11:10:05.269Z,9.50
2019-04-05T11:11:05.364Z,9.50
2019-04-05T11:12:08.910Z,9.50
2019-04-05T11:13:04.930Z,9.50
2019-04-05T11:14:13.406Z,9.50
2019-04-05T11:15:05.232Z,9.50
2019-04-05T11:16:05.225Z,9.50
2019-04-05T11:17:05.329Z,9.50
2019-04-05T11:18:08.796Z,9.50
2019-04-05T11:19:08.790Z,9.50
2019-04-05T11:20:14.894Z,9.50
2019-04-05T11:21:05.572Z,9.50
2019-04-05T11:22:04.737Z,9.50
2019-04-05T11:23:08.784Z,9.50
2019-04-05T11:24:04.772Z,9.50
2019-04-05T11:25:04.848Z,9.50
2019-04-05T11:26:04.928Z,9.50
2019-04-05T11:27:06.595Z,9.50
2019-04-05T11:28:08.829Z,9.60
2019-04-05T11:29:08.815Z,9.50
2019-04-05T11:30:04.685Z,9.50
2019-04-05T11:31:04.838Z,9.50
2019-04-05T11:32:04.816Z,9.50
2019-04-05T11:33:08.825Z,9.60
2019-04-05T11:34:04.725Z,9.60
2019-04-05T11:35:08.828Z,9.60
2019-04-05T11:36:04.868Z,9.60
2019-04-05T11:37:04.927Z,9.60
2019-04-05T11:38:04.920Z,9.60
2019-04-05T11:39:05.375Z,9.70
2019-04-05T11:40:05.489Z,9.70
2019-04-05T11:41:05.627Z,9.70
2019-04-05T11:42:08.848Z,9.70
2019-04-05T11:43:04.777Z,9.70
2019-04-05T11:44:08.856Z,9.70
2019-04-05T11:45:08.881Z,9.70
2019-04-05T11:46:04.962Z,9.70
2019-04-05T11:47:05.064Z,9.70
2019-04-05T11:48:05.181Z,9.70
2019-04-05T11:49:05.262Z,9.70
2019-04-05T11:50:05.492Z,9.70
2019-04-05T11:51:05.494Z,9.70
2019-04-05T11:52:05.712Z,9.70
2019-04-05T11:53:04.972Z,9.70
2019-04-05T11:54:05.078Z,9.70
2019-04-05T11:55:05.229Z,9.70
2019-04-05T11:56:14.247Z,9.70
2019-04-05T11:57:05.271Z,9.70
2019-04-05T11:58:05.311Z,9.80
2019-04-05T11:59:05.291Z,9.80
2019-04-05T12:00:08.870Z,9.70
2019-04-05T12:01:04.891Z,9.70
2019-04-05T12:02:08.868Z,9.80
2019-04-05T12:03:09.733Z,9.80
2019-04-05T12:04:08.851Z,9.70
2019-04-05T12:05:04.815Z,9.80
2019-04-05T12:06:04.905Z,9.80
2019-04-05T12:07:05.120Z,9.80
2019-04-05T12:08:05.191Z,9.80
2019-04-05T12:09:05.253Z,9.80
2019-04-05T12:10:05.399Z,9.80
2019-04-05T12:11:05.600Z,9.80
2019-04-05T12:12:04.798Z,9.80
2019-04-05T12:13:04.891Z,9.80
2019-04-05T12:14:04.956Z,9.80
2019-04-05T12:15:06.439Z,9.80
2019-04-05T12:16:05.941Z,9.80
2019-04-05T12:17:05.545Z,9.80
2019-04-05T12:18:05.393Z,9.80
2019-04-05T12:19:05.735Z,9.80
2019-04-05T12:20:04.882Z,9.80
2019-04-05T12:21:05.643Z,9.80
2019-04-05T12:22:05.479Z,9.80
2019-04-05T12:23:04.868Z,9.80
2019-04-05T12:24:04.951Z,9.80
2019-04-05T12:25:04.978Z,9.90
2019-04-05T12:26:05.205Z,9.80
2019-04-05T12:27:05.535Z,9.80
2019-04-05T12:28:06.788Z,9.80
2019-04-05T12:29:05.482Z,9.80
2019-04-05T12:30:05.494Z,9.80
2019-04-05T12:31:08.871Z,9.80
2019-04-05T12:32:12.917Z,9.80
2019-04-05T12:33:13.404Z,9.80
2019-04-05T12:34:04.652Z,9.80
2019-04-05T12:35:04.643Z,9.80
2019-04-05T12:36:05.411Z,9.70
2019-04-05T12:37:05.559Z,9.80
2019-04-05T12:38:06.921Z,9.70
2019-04-05T12:39:08.005Z,9.70
2019-04-05T12:40:05.177Z,9.70
2019-04-05T12:41:05.489Z,9.70
2019-04-05T12:42:12.128Z,9.70
2019-04-05T12:43:04.770Z,9.70
2019-04-05T12:44:08.860Z,9.80
2019-04-05T12:45:04.793Z,9.70
2019-04-05T12:46:09.987Z,9.70
2019-04-05T12:47:08.876Z,9.80
2019-04-05T12:48:04.940Z,9.70
2019-04-05T12:49:08.880Z,9.70
2019-04-05T12:50:08.871Z,9.80
2019-04-05T12:51:05.540Z,9.80
2019-04-05T12:52:04.969Z,9.80
2019-04-05T12:53:05.110Z,9.80
2019-04-05T12:54:08.873Z,9.80
2019-04-05T12:55:04.948Z,9.80
2019-04-05T12:56:08.865Z,9.80
2019-04-05T12:57:09.968Z,9.70
2019-04-05T12:58:05.032Z,9.80
2019-04-05T12:59:05.171Z,9.80
2019-04-05T13:00:05.289Z,9.80
2019-04-05T13:01:08.126Z,9.80
2019-04-05T13:02:04.751Z,9.80
2019-04-05T13:03:04.815Z,9.70
2019-04-05T13:04:05.196Z,9.70
2019-04-05T13:05:05.259Z,9.70
2019-04-05T13:06:08.875Z,9.70
2019-04-05T13:07:08.967Z,9.80
2019-04-05T13:08:04.883Z,9.70
2019-04-05T13:09:05.684Z,9.70
2019-04-05T13:10:05.215Z,9.80
2019-04-05T13:11:05.448Z,9.80
2019-04-05T13:12:05.548Z,9.80
2019-04-05T13:13:05.712Z,9.80
2019-04-05T13:14:04.924Z,9.80
2019-04-05T13:15:11.599Z,9.80
2019-04-05T13:16:04.832Z,9.80
2019-04-05T13:17:08.887Z,9.90
2019-04-05T13:18:04.800Z,9.90